sensor_id;sensor_type;location;lat;lon;timestamp;pressure;altitude;pressure_sealevel;temperature;humidity
24620;BME280;12763;55.802;37.404;2023-02-28T00:00:22;100017.56;;;-5.19;100.00
24620;BME280;12763;55.802;37.404;2023-02-28T00:02:48;100004.34;;;-5.22;100.00
24620;BME280;12763;55.802;37.404;2023-02-28T00:05:16;99996.47;;;-5.25;100.00
24620;BME280;12763;55.802;37.404;2023-02-28T00:07:42;100006.69;;;-5.30;100.00
24620;BME280;12763;55.802;37.404;2023-02-28T00:10:16;99995.91;;;-5.30;100.00
24620;BME280;12763;55.802;37.404;2023-02-28T00:12:52;99985.72;;;-5.25;100.00
24620;BME280;12763;55.802;37.404;2023-02-28T00:15:19;100007.94;;;-5.73;100.00
24620;BME280;12763;55.802;37.404;2023-02-28T00:17:45;99983.47;;;-5.56;100.00
24620;BME280;12763;55.802;37.404;2023-02-28T00:20:13;100007.03;;;-5.35;100.00
24620;BME280;12763;55.802;37.404;2023-02-28T00:22:43;99981.84;;;-5.46;100.00
24620;BME280;12763;55.802;37.404;2023-02-28T00:25:11;99971.50;;;-5.27;100.00
24620;BME280;12763;55.802;37.404;2023-02-28T00:27:39;99975.19;;;-5.28;100.00
24620;BME280;12763;55.802;37.404;2023-02-28T00:30:07;99961.81;;;-5.17;100.00
24620;BME280;12763;55.802;37.404;2023-02-28T00:32:33;99964.63;;;-5.44;100.00
24620;BME280;12763;55.802;37.404;2023-02-28T00:35:01;99967.19;;;-5.29;100.00
24620;BME280;12763;55.802;37.404;2023-02-28T00:37:29;99972.16;;;-5.23;100.00
24620;BME280;12763;55.802;37.404;2023-02-28T00:39:55;99965.28;;;-5.27;100.00
24620;BME280;12763;55.802;37.404;2023-02-28T00:42:22;99971.72;;;-5.30;100.00
24620;BME280;12763;55.802;37.404;2023-02-28T00:44:47;99966.75;;;-5.11;100.00
24620;BME280;12763;55.802;37.404;2023-02-28T00:47:13;99963.97;;;-5.22;100.00
24620;BME280;12763;55.802;37.404;2023-02-28T00:49:40;99965.28;;;-5.27;100.00
24620;BME280;12763;55.802;37.404;2023-02-28T00:52:08;99973.66;;;-5.57;100.00
24620;BME280;12763;55.802;37.404;2023-02-28T00:54:34;99948.50;;;-5.56;100.00
24620;BME280;12763;55.802;37.404;2023-02-28T00:57:00;99936.78;;;-5.55;100.00
24620;BME280;12763;55.802;37.404;2023-02-28T00:59:26;99949.13;;;-5.65;100.00
24620;BME280;12763;55.802;37.404;2023-02-28T01:01:52;99945.47;;;-5.52;100.00
24620;BME280;12763;55.802;37.404;2023-02-28T01:04:18;99940.09;;;-5.39;100.00
24620;BME280;12763;55.802;37.404;2023-02-28T01:06:44;99928.91;;;-5.33;100.00
24620;BME280;12763;55.802;37.404;2023-02-28T01:09:10;99919.75;;;-5.43;100.00
24620;BME280;12763;55.802;37.404;2023-02-28T01:11:37;99922.13;;;-5.51;100.00
24620;BME280;12763;55.802;37.404;2023-02-28T01:14:03;99921.25;;;-5.52;100.00
24620;BME280;12763;55.802;37.404;2023-02-28T01:16:30;99907.41;;;-5.58;100.00
24620;BME280;12763;55.802;37.404;2023-02-28T01:18:56;99896.84;;;-5.49;100.00
24620;BME280;12763;55.802;37.404;2023-02-28T01:21:22;99880.56;;;-5.22;100.00
24620;BME280;12763;55.802;37.404;2023-02-28T01:23:49;99882.59;;;-5.74;100.00
24620;BME280;12763;55.802;37.404;2023-02-28T01:26:21;99895.97;;;-5.49;100.00
24620;BME280;12763;55.802;37.404;2023-02-28T01:28:49;99883.97;;;-5.56;100.00
24620;BME280;12763;55.802;37.404;2023-02-28T01:31:15;99892.13;;;-5.45;100.00
24620;BME280;12763;55.802;37.404;2023-02-28T01:33:41;99865.38;;;-5.23;100.00
24620;BME280;12763;55.802;37.404;2023-02-28T01:36:11;99869.75;;;-5.46;100.00
24620;BME280;12763;55.802;37.404;2023-02-28T01:38:37;99865.44;;;-5.48;100.00
24620;BME280;12763;55.802;37.404;2023-02-28T01:41:04;99860.94;;;-5.48;100.00
24620;BME280;12763;55.802;37.404;2023-02-28T01:46:20;99834.25;;;-5.51;100.00
24620;BME280;12763;55.802;37.404;2023-02-28T01:48:51;99838.50;;;-5.23;100.00
24620;BME280;12763;55.802;37.404;2023-02-28T01:51:22;99836.53;;;-5.21;100.00
24620;BME280;12763;55.802;37.404;2023-02-28T01:53:57;99827.00;;;-5.38;100.00
24620;BME280;12763;55.802;37.404;2023-02-28T01:56:26;99820.59;;;-5.60;100.00
24620;BME280;12763;55.802;37.404;2023-02-28T01:58:54;99805.75;;;-5.53;100.00
24620;BME280;12763;55.802;37.404;2023-02-28T02:01:23;99813.19;;;-5.57;100.00
24620;BME280;12763;55.802;37.404;2023-02-28T02:03:57;99819.44;;;-5.69;100.00
24620;BME280;12763;55.802;37.404;2023-02-28T02:06:34;99818.97;;;-5.50;100.00
24620;BME280;12763;55.802;37.404;2023-02-28T02:09:01;99811.25;;;-5.67;100.00
24620;BME280;12763;55.802;37.404;2023-02-28T02:11:28;99795.09;;;-5.55;100.00
24620;BME280;12763;55.802;37.404;2023-02-28T02:14:35;99785.53;;;-5.59;100.00
24620;BME280;12763;55.802;37.404;2023-02-28T02:17:25;99791.72;;;-5.69;100.00
24620;BME280;12763;55.802;37.404;2023-02-28T02:36:23;99778.13;;;-5.55;100.00
24620;BME280;12763;55.802;37.404;2023-02-28T02:38:55;99781.94;;;-5.47;100.00
24620;BME280;12763;55.802;37.404;2023-02-28T02:41:27;99771.69;;;-5.65;100.00
24620;BME280;12763;55.802;37.404;2023-02-28T02:46:51;99742.44;;;-5.70;100.00
24620;BME280;12763;55.802;37.404;2023-02-28T02:49:29;99757.72;;;-5.70;100.00
24620;BME280;12763;55.802;37.404;2023-02-28T02:51:58;99739.47;;;-5.78;100.00
24620;BME280;12763;55.802;37.404;2023-02-28T02:54:29;99728.56;;;-5.64;100.00
24620;BME280;12763;55.802;37.404;2023-02-28T02:56:59;99733.00;;;-5.75;100.00
24620;BME280;12763;55.802;37.404;2023-02-28T02:59:27;99728.16;;;-6.07;100.00
24620;BME280;12763;55.802;37.404;2023-02-28T03:01:59;99729.34;;;-5.74;100.00
24620;BME280;12763;55.802;37.404;2023-02-28T03:04:28;99726.25;;;-5.81;100.00
24620;BME280;12763;55.802;37.404;2023-02-28T03:06:55;99722.34;;;-6.01;100.00
24620;BME280;12763;55.802;37.404;2023-02-28T03:09:22;99712.03;;;-5.94;100.00
24620;BME280;12763;55.802;37.404;2023-02-28T03:11:49;99710.16;;;-5.93;100.00
24620;BME280;12763;55.802;37.404;2023-02-28T03:14:44;99710.00;;;-5.79;100.00
24620;BME280;12763;55.802;37.404;2023-02-28T03:25:43;99688.38;;;-6.02;100.00
24620;BME280;12763;55.802;37.404;2023-02-28T03:28:21;99677.44;;;-6.11;100.00
24620;BME280;12763;55.802;37.404;2023-02-28T03:31:27;99678.28;;;-5.74;100.00
24620;BME280;12763;55.802;37.404;2023-02-28T03:34:01;99688.50;;;-6.03;100.00
24620;BME280;12763;55.802;37.404;2023-02-28T03:36:33;99680.94;;;-5.98;100.00
24620;BME280;12763;55.802;37.404;2023-02-28T03:39:13;99689.66;;;-6.07;100.00
24620;BME280;12763;55.802;37.404;2023-02-28T03:41:46;99702.56;;;-6.00;100.00
24620;BME280;12763;55.802;37.404;2023-02-28T03:44:24;99669.16;;;-5.84;100.00
24620;BME280;12763;55.802;37.404;2023-02-28T03:47:07;99666.88;;;-6.02;100.00
24620;BME280;12763;55.802;37.404;2023-02-28T03:49:36;99661.69;;;-5.92;100.00
24620;BME280;12763;55.802;37.404;2023-02-28T03:52:06;99661.06;;;-5.96;100.00
24620;BME280;12763;55.802;37.404;2023-02-28T03:54:41;99641.56;;;-5.86;100.00
24620;BME280;12763;55.802;37.404;2023-02-28T03:57:28;99656.31;;;-5.92;100.00
24620;BME280;12763;55.802;37.404;2023-02-28T04:00:00;99636.19;;;-6.23;100.00
24620;BME280;12763;55.802;37.404;2023-02-28T04:02:38;99652.97;;;-6.32;100.00
24620;BME280;12763;55.802;37.404;2023-02-28T04:05:05;99642.63;;;-6.13;100.00
24620;BME280;12763;55.802;37.404;2023-02-28T04:07:32;99628.28;;;-6.01;100.00
24620;BME280;12763;55.802;37.404;2023-02-28T04:09:58;99630.78;;;-6.10;100.00
24620;BME280;12763;55.802;37.404;2023-02-28T04:12:24;99599.84;;;-6.16;100.00
24620;BME280;12763;55.802;37.404;2023-02-28T04:14:50;99617.03;;;-6.06;100.00
24620;BME280;12763;55.802;37.404;2023-02-28T04:17:17;99645.13;;;-6.22;100.00
24620;BME280;12763;55.802;37.404;2023-02-28T04:19:42;99633.38;;;-6.09;100.00
24620;BME280;12763;55.802;37.404;2023-02-28T04:22:09;99615.06;;;-5.91;100.00
24620;BME280;12763;55.802;37.404;2023-02-28T04:24:35;99619.16;;;-5.98;100.00
24620;BME280;12763;55.802;37.404;2023-02-28T04:27:01;99630.13;;;-6.01;100.00
24620;BME280;12763;55.802;37.404;2023-02-28T04:29:29;99617.41;;;-5.99;100.00
24620;BME280;12763;55.802;37.404;2023-02-28T04:31:56;99604.47;;;-6.05;100.00
24620;BME280;12763;55.802;37.404;2023-02-28T04:34:26;99605.84;;;-6.00;99.93
24620;BME280;12763;55.802;37.404;2023-02-28T04:36:52;99603.25;;;-6.01;99.55
24620;BME280;12763;55.802;37.404;2023-02-28T04:39:21;99585.59;;;-5.92;99.14
24620;BME280;12763;55.802;37.404;2023-02-28T04:41:47;99591.19;;;-5.96;98.15
24620;BME280;12763;55.802;37.404;2023-02-28T04:44:14;99586.31;;;-5.90;97.95
24620;BME280;12763;55.802;37.404;2023-02-28T04:46:40;99579.50;;;-5.83;97.97
24620;BME280;12763;55.802;37.404;2023-02-28T04:49:06;99556.03;;;-5.92;98.10
24620;BME280;12763;55.802;37.404;2023-02-28T04:51:32;99564.00;;;-5.91;97.67
24620;BME280;12763;55.802;37.404;2023-02-28T04:53:57;99571.66;;;-5.98;97.63
24620;BME280;12763;55.802;37.404;2023-02-28T04:56:23;99573.09;;;-5.93;97.05
24620;BME280;12763;55.802;37.404;2023-02-28T04:58:49;99547.63;;;-6.12;97.22
24620;BME280;12763;55.802;37.404;2023-02-28T05:03:48;99536.03;;;-5.77;95.85
24620;BME280;12763;55.802;37.404;2023-02-28T05:06:14;99554.00;;;-6.02;96.24
24620;BME280;12763;55.802;37.404;2023-02-28T05:08:40;99536.03;;;-5.88;95.14
24620;BME280;12763;55.802;37.404;2023-02-28T05:11:18;99539.84;;;-5.69;94.82
24620;BME280;12763;55.802;37.404;2023-02-28T05:13:45;99533.84;;;-5.72;93.72
24620;BME280;12763;55.802;37.404;2023-02-28T05:16:11;99519.19;;;-5.68;93.53
24620;BME280;12763;55.802;37.404;2023-02-28T05:18:38;99526.28;;;-5.67;92.94
24620;BME280;12763;55.802;37.404;2023-02-28T05:21:04;99550.75;;;-5.59;91.31
24620;BME280;12763;55.802;37.404;2023-02-28T05:23:29;99505.13;;;-5.83;91.49
24620;BME280;12763;55.802;37.404;2023-02-28T05:25:55;99500.53;;;-5.59;91.47
24620;BME280;12763;55.802;37.404;2023-02-28T05:28:21;99500.13;;;-5.65;91.04
24620;BME280;12763;55.802;37.404;2023-02-28T05:30:47;99491.38;;;-5.56;90.61
24620;BME280;12763;55.802;37.404;2023-02-28T05:33:14;99482.06;;;-5.52;90.95
24620;BME280;12763;55.802;37.404;2023-02-28T05:35:40;99475.03;;;-5.31;89.81
24620;BME280;12763;55.802;37.404;2023-02-28T05:38:08;99476.56;;;-5.62;90.05
24620;BME280;12763;55.802;37.404;2023-02-28T05:40:34;99459.09;;;-5.56;89.81
24620;BME280;12763;55.802;37.404;2023-02-28T05:43:00;99472.75;;;-5.70;89.44
24620;BME280;12763;55.802;37.404;2023-02-28T05:45:26;99456.44;;;-5.45;89.86
24620;BME280;12763;55.802;37.404;2023-02-28T05:47:55;99453.88;;;-5.13;87.95
24620;BME280;12763;55.802;37.404;2023-02-28T05:50:21;99455.34;;;-5.43;87.45
24620;BME280;12763;55.802;37.404;2023-02-28T05:52:51;99445.94;;;-5.15;86.86
24620;BME280;12763;55.802;37.404;2023-02-28T05:55:18;99420.75;;;-5.25;86.70
24620;BME280;12763;55.802;37.404;2023-02-28T05:57:44;99423.44;;;-5.14;85.83
24620;BME280;12763;55.802;37.404;2023-02-28T06:00:10;99441.28;;;-5.13;85.16
24620;BME280;12763;55.802;37.404;2023-02-28T06:02:39;99430.53;;;-5.13;84.78
24620;BME280;12763;55.802;37.404;2023-02-28T06:05:17;99394.75;;;-4.70;83.62
24620;BME280;12763;55.802;37.404;2023-02-28T06:07:43;99387.81;;;-4.52;83.06
24620;BME280;12763;55.802;37.404;2023-02-28T06:10:11;99414.22;;;-4.78;81.64
24620;BME280;12763;55.802;37.404;2023-02-28T06:12:38;99400.59;;;-4.65;80.29
24620;BME280;12763;55.802;37.404;2023-02-28T06:15:04;99379.16;;;-4.24;80.02
24620;BME280;12763;55.802;37.404;2023-02-28T06:17:30;99410.81;;;-4.37;78.93
24620;BME280;12763;55.802;37.404;2023-02-28T06:19:56;99397.81;;;-4.32;77.85
24620;BME280;12763;55.802;37.404;2023-02-28T06:22:21;99366.50;;;-4.44;77.58
24620;BME280;12763;55.802;37.404;2023-02-28T06:24:47;99384.94;;;-4.08;77.04
24620;BME280;12763;55.802;37.404;2023-02-28T06:27:13;99357.78;;;-4.16;76.09
24620;BME280;12763;55.802;37.404;2023-02-28T06:29:39;99370.34;;;-4.05;75.72
24620;BME280;12763;55.802;37.404;2023-02-28T06:32:08;99394.50;;;-4.04;75.00
24620;BME280;12763;55.802;37.404;2023-02-28T06:34:33;99364.69;;;-4.02;75.08
24620;BME280;12763;55.802;37.404;2023-02-28T06:36:59;99340.06;;;-3.98;75.17
24620;BME280;12763;55.802;37.404;2023-02-28T06:39:29;99333.22;;;-3.51;74.90
24620;BME280;12763;55.802;37.404;2023-02-28T06:41:54;99351.34;;;-3.63;73.55
24620;BME280;12763;55.802;37.404;2023-02-28T06:44:21;99341.78;;;-3.67;73.74
24620;BME280;12763;55.802;37.404;2023-02-28T06:46:48;99329.56;;;-3.40;72.69
24620;BME280;12763;55.802;37.404;2023-02-28T06:49:14;99311.31;;;-3.58;73.33
24620;BME280;12763;55.802;37.404;2023-02-28T06:51:41;99305.94;;;-3.08;73.09
24620;BME280;12763;55.802;37.404;2023-02-28T06:54:11;99288.38;;;-2.83;72.33
24620;BME280;12763;55.802;37.404;2023-02-28T06:56:37;99277.34;;;-3.30;72.60
24620;BME280;12763;55.802;37.404;2023-02-28T06:59:04;99279.66;;;-3.16;72.52
24620;BME280;12763;55.802;37.404;2023-02-28T07:01:30;99277.13;;;-3.57;73.61
24620;BME280;12763;55.802;37.404;2023-02-28T07:03:58;99289.97;;;-3.30;74.24
24620;BME280;12763;55.802;37.404;2023-02-28T07:06:26;99297.38;;;-3.32;74.56
24620;BME280;12763;55.802;37.404;2023-02-28T07:08:53;99260.72;;;-3.25;74.77
24620;BME280;12763;55.802;37.404;2023-02-28T07:11:21;99247.41;;;-3.08;74.60
24620;BME280;12763;55.802;37.404;2023-02-28T07:13:49;99241.63;;;-2.93;73.61
24620;BME280;12763;55.802;37.404;2023-02-28T07:16:16;99248.72;;;-2.83;73.21
24620;BME280;12763;55.802;37.404;2023-02-28T07:18:42;99237.31;;;-3.06;74.13
24620;BME280;12763;55.802;37.404;2023-02-28T07:21:09;99227.41;;;-2.95;73.85
24620;BME280;12763;55.802;37.404;2023-02-28T07:23:37;99266.75;;;-3.12;74.18
24620;BME280;12763;55.802;37.404;2023-02-28T07:26:11;99278.53;;;-3.13;75.67
24620;BME280;12763;55.802;37.404;2023-02-28T07:28:38;99240.47;;;-2.91;75.60
24620;BME280;12763;55.802;37.404;2023-02-28T07:31:05;99229.09;;;-2.75;74.67
24620;BME280;12763;55.802;37.404;2023-02-28T07:33:33;99259.53;;;-2.83;74.76
24620;BME280;12763;55.802;37.404;2023-02-28T07:36:07;99209.75;;;-2.61;74.64
24620;BME280;12763;55.802;37.404;2023-02-28T07:38:36;99211.41;;;-2.31;74.32
24620;BME280;12763;55.802;37.404;2023-02-28T07:41:02;99199.22;;;-2.45;74.76
24620;BME280;12763;55.802;37.404;2023-02-28T07:43:32;99195.81;;;-2.38;74.13
24620;BME280;12763;55.802;37.404;2023-02-28T07:46:06;99206.63;;;-2.38;74.77
24620;BME280;12763;55.802;37.404;2023-02-28T07:48:32;99194.66;;;-2.45;75.16
24620;BME280;12763;55.802;37.404;2023-02-28T07:50:59;99200.34;;;-2.48;74.91
24620;BME280;12763;55.802;37.404;2023-02-28T07:53:25;99209.78;;;-2.52;75.45
24620;BME280;12763;55.802;37.404;2023-02-28T07:55:55;99184.38;;;-2.31;75.70
24620;BME280;12763;55.802;37.404;2023-02-28T07:58:21;99202.66;;;-1.97;74.20
24620;BME280;12763;55.802;37.404;2023-02-28T08:00:46;99194.53;;;-1.97;75.61
24620;BME280;12763;55.802;37.404;2023-02-28T08:03:13;99193.44;;;-1.77;75.11
24620;BME280;12763;55.802;37.404;2023-02-28T08:05:41;99169.50;;;-1.44;73.28
24620;BME280;12763;55.802;37.404;2023-02-28T08:08:07;99167.44;;;-1.87;74.56
24620;BME280;12763;55.802;37.404;2023-02-28T08:10:34;99171.75;;;-1.94;75.52
24620;BME280;12763;55.802;37.404;2023-02-28T08:13:00;99148.91;;;-1.82;76.74
24620;BME280;12763;55.802;37.404;2023-02-28T08:15:26;99159.44;;;-1.79;75.84
24620;BME280;12763;55.802;37.404;2023-02-28T08:17:52;99131.56;;;-1.62;75.49
24620;BME280;12763;55.802;37.404;2023-02-28T08:20:17;99156.19;;;-1.38;75.14
24620;BME280;12763;55.802;37.404;2023-02-28T08:22:44;99149.44;;;-1.69;75.55
24620;BME280;12763;55.802;37.404;2023-02-28T08:25:09;99173.13;;;-1.81;77.59
24620;BME280;12763;55.802;37.404;2023-02-28T08:27:36;99120.72;;;-1.52;77.59
24620;BME280;12763;55.802;37.404;2023-02-28T08:30:03;99109.28;;;-1.29;76.44
24620;BME280;12763;55.802;37.404;2023-02-28T08:32:34;99156.66;;;-1.42;76.79
24620;BME280;12763;55.802;37.404;2023-02-28T08:35:00;99195.63;;;-1.53;77.38
24620;BME280;12763;55.802;37.404;2023-02-28T08:37:29;99193.69;;;-1.43;78.45
24620;BME280;12763;55.802;37.404;2023-02-28T08:39:54;99176.16;;;-1.39;78.36
24620;BME280;12763;55.802;37.404;2023-02-28T08:42:20;99206.09;;;-1.67;79.81
24620;BME280;12763;55.802;37.404;2023-02-28T08:44:46;99172.25;;;-1.54;80.01
24620;BME280;12763;55.802;37.404;2023-02-28T08:47:12;99180.16;;;-1.60;80.22
24620;BME280;12763;55.802;37.404;2023-02-28T08:49:38;99177.66;;;-1.54;80.66
24620;BME280;12763;55.802;37.404;2023-02-28T08:52:04;99180.97;;;-1.60;81.26
24620;BME280;12763;55.802;37.404;2023-02-28T08:54:30;99168.34;;;-1.42;80.42
24620;BME280;12763;55.802;37.404;2023-02-28T08:56:57;99166.75;;;-1.17;79.71
24620;BME280;12763;55.802;37.404;2023-02-28T08:59:23;99172.94;;;-1.52;81.02
24620;BME280;12763;55.802;37.404;2023-02-28T09:01:48;99135.56;;;-1.39;81.53
24620;BME280;12763;55.802;37.404;2023-02-28T09:04:14;99133.00;;;-1.05;80.56
24620;BME280;12763;55.802;37.404;2023-02-28T09:06:40;99119.72;;;-1.34;80.95
24620;BME280;12763;55.802;37.404;2023-02-28T09:09:06;99142.22;;;-1.33;82.23
24620;BME280;12763;55.802;37.404;2023-02-28T09:11:34;99121.66;;;-1.08;81.27
24620;BME280;12763;55.802;37.404;2023-02-28T09:14:01;99107.56;;;-1.30;81.92
24620;BME280;12763;55.802;37.404;2023-02-28T09:16:29;99104.72;;;-1.28;82.40
24620;BME280;12763;55.802;37.404;2023-02-28T09:18:56;99097.78;;;-0.87;80.54
24620;BME280;12763;55.802;37.404;2023-02-28T09:21:22;99092.69;;;-0.90;80.60
24620;BME280;12763;55.802;37.404;2023-02-28T09:23:49;99104.47;;;-0.56;79.26
24620;BME280;12763;55.802;37.404;2023-02-28T09:26:20;99118.69;;;-0.80;79.27
24620;BME280;12763;55.802;37.404;2023-02-28T09:28:47;99110.03;;;-0.83;80.53
24620;BME280;12763;55.802;37.404;2023-02-28T09:31:16;99116.13;;;-0.99;80.77
24620;BME280;12763;55.802;37.404;2023-02-28T09:33:42;99126.53;;;-0.94;81.15
24620;BME280;12763;55.802;37.404;2023-02-28T09:36:08;99120.81;;;-1.09;82.00
24620;BME280;12763;55.802;37.404;2023-02-28T09:38:34;99088.56;;;-0.77;81.85
24620;BME280;12763;55.802;37.404;2023-02-28T09:41:03;99096.41;;;-0.48;80.02
24620;BME280;12763;55.802;37.404;2023-02-28T09:43:37;99099.84;;;-0.38;79.58
24620;BME280;12763;55.802;37.404;2023-02-28T09:48:55;99070.94;;;-0.81;82.54
24620;BME280;12763;55.802;37.404;2023-02-28T09:51:43;99083.72;;;-0.91;82.14
24620;BME280;12763;55.802;37.404;2023-02-28T09:54:17;99056.75;;;-0.75;83.26
24620;BME280;12763;55.802;37.404;2023-02-28T09:56:49;99055.06;;;-0.93;83.71
24620;BME280;12763;55.802;37.404;2023-02-28T09:59:25;99075.28;;;-0.62;82.38
24620;BME280;12763;55.802;37.404;2023-02-28T10:07:47;99042.94;;;-0.64;84.91
24620;BME280;12763;55.802;37.404;2023-02-28T10:10:23;99064.72;;;-1.16;86.74
24620;BME280;12763;55.802;37.404;2023-02-28T10:12:55;99064.22;;;-0.94;86.25
24620;BME280;12763;55.802;37.404;2023-02-28T10:15:25;99008.41;;;-0.62;85.39
24620;BME280;12763;55.802;37.404;2023-02-28T10:18:11;99024.06;;;-0.47;84.15
24620;BME280;12763;55.802;37.404;2023-02-28T10:20:39;99035.00;;;-0.83;85.55
24620;BME280;12763;55.802;37.404;2023-02-28T10:23:27;99057.53;;;-0.82;85.22
24620;BME280;12763;55.802;37.404;2023-02-28T10:26:04;98994.94;;;-0.71;86.79
24620;BME280;12763;55.802;37.404;2023-02-28T10:28:33;99000.38;;;-0.71;87.05
24620;BME280;12763;55.802;37.404;2023-02-28T10:30:59;98997.94;;;-0.82;86.79
24620;BME280;12763;55.802;37.404;2023-02-28T10:33:30;99011.69;;;-0.50;86.11
24620;BME280;12763;55.802;37.404;2023-02-28T10:35:57;98984.47;;;-0.32;84.32
24620;BME280;12763;55.802;37.404;2023-02-28T10:38:28;99053.38;;;-0.43;84.83
24620;BME280;12763;55.802;37.404;2023-02-28T10:41:08;99034.69;;;-0.54;86.31
24620;BME280;12763;55.802;37.404;2023-02-28T10:43:36;98993.53;;;-0.49;85.72
24620;BME280;12763;55.802;37.404;2023-02-28T10:46:04;98990.44;;;-0.29;85.16
24620;BME280;12763;55.802;37.404;2023-02-28T10:48:41;99011.00;;;-0.44;85.64
24620;BME280;12763;55.802;37.404;2023-02-28T10:51:12;98977.50;;;-0.43;86.54
24620;BME280;12763;55.802;37.404;2023-02-28T10:59:19;98964.94;;;-0.44;87.75
24620;BME280;12763;55.802;37.404;2023-02-28T11:01:47;98972.00;;;-0.59;88.92
24620;BME280;12763;55.802;37.404;2023-02-28T11:07:05;98990.16;;;-0.10;87.54
24620;BME280;12763;55.802;37.404;2023-02-28T11:09:38;98948.59;;;-0.60;89.52
24620;BME280;12763;55.802;37.404;2023-02-28T11:12:07;98970.56;;;-0.37;89.91
24620;BME280;12763;55.802;37.404;2023-02-28T11:14:42;98937.19;;;-0.30;88.77
24620;BME280;12763;55.802;37.404;2023-02-28T11:17:20;98960.94;;;-0.32;88.91
24620;BME280;12763;55.802;37.404;2023-02-28T11:19:50;98956.34;;;-0.39;89.17
24620;BME280;12763;55.802;37.404;2023-02-28T11:22:20;98940.69;;;-0.04;89.09
24620;BME280;12763;55.802;37.404;2023-02-28T11:24:49;98941.69;;;-0.05;88.17
24620;BME280;12763;55.802;37.404;2023-02-28T11:27:42;98986.72;;;-0.28;89.58
24620;BME280;12763;55.802;37.404;2023-02-28T11:36:15;98940.34;;;-0.01;88.48
24620;BME280;12763;55.802;37.404;2023-02-28T11:38:42;98926.81;;;0.08;89.01
24620;BME280;12763;55.802;37.404;2023-02-28T11:46:35;98929.53;;;0.32;88.81
24620;BME280;12763;55.802;37.404;2023-02-28T11:52:15;98918.47;;;0.09;94.22
24620;BME280;12763;55.802;37.404;2023-02-28T11:57:56;98907.63;;;0.17;97.42
24620;BME280;12763;55.802;37.404;2023-02-28T12:03:44;98903.19;;;-0.16;100.00
24620;BME280;12763;55.802;37.404;2023-02-28T12:19:17;98901.34;;;0.09;100.00
24620;BME280;12763;55.802;37.404;2023-02-28T12:27:13;98874.59;;;0.14;100.00
24620;BME280;12763;55.802;37.404;2023-02-28T12:29:54;98861.19;;;0.12;100.00
24620;BME280;12763;55.802;37.404;2023-02-28T12:32:35;98869.66;;;0.25;100.00
24620;BME280;12763;55.802;37.404;2023-02-28T12:37:49;98874.22;;;-0.08;100.00
24620;BME280;12763;55.802;37.404;2023-02-28T12:40:39;98868.28;;;-0.11;100.00
24620;BME280;12763;55.802;37.404;2023-02-28T12:43:08;98865.75;;;0.20;100.00
24620;BME280;12763;55.802;37.404;2023-02-28T12:48:10;98844.56;;;0.07;100.00
24620;BME280;12763;55.802;37.404;2023-02-28T12:50:39;98848.13;;;-0.17;100.00
24620;BME280;12763;55.802;37.404;2023-02-28T12:53:14;98839.31;;;0.14;100.00
24620;BME280;12763;55.802;37.404;2023-02-28T13:09:19;98803.34;;;0.04;100.00
24620;BME280;12763;55.802;37.404;2023-02-28T13:11:48;98797.75;;;0.21;100.00
24620;BME280;12763;55.802;37.404;2023-02-28T13:19:26;98785.31;;;0.59;100.00
24620;BME280;12763;55.802;37.404;2023-02-28T13:21:52;98794.53;;;0.26;100.00
24620;BME280;12763;55.802;37.404;2023-02-28T13:24:38;98786.78;;;0.70;100.00
24620;BME280;12763;55.802;37.404;2023-02-28T13:29:37;98784.50;;;0.42;100.00
24620;BME280;12763;55.802;37.404;2023-02-28T13:34:37;98788.44;;;0.16;100.00
24620;BME280;12763;55.802;37.404;2023-02-28T13:47:43;98761.91;;;0.42;100.00
24620;BME280;12763;55.802;37.404;2023-02-28T13:58:27;98754.81;;;0.41;100.00
24620;BME280;12763;55.802;37.404;2023-02-28T14:06:51;98774.81;;;0.40;100.00
24620;BME280;12763;55.802;37.404;2023-02-28T14:11:44;98754.44;;;0.60;100.00
24620;BME280;12763;55.802;37.404;2023-02-28T14:17:03;98766.22;;;0.20;100.00
24620;BME280;12763;55.802;37.404;2023-02-28T14:19:32;98745.59;;;0.58;100.00
24620;BME280;12763;55.802;37.404;2023-02-28T14:24:59;98746.16;;;0.45;100.00
24620;BME280;12763;55.802;37.404;2023-02-28T14:30:55;98733.06;;;0.57;100.00
24620;BME280;12763;55.802;37.404;2023-02-28T14:41:41;98722.13;;;0.73;100.00
24620;BME280;12763;55.802;37.404;2023-02-28T14:46:40;98720.56;;;0.79;100.00
24620;BME280;12763;55.802;37.404;2023-02-28T14:49:17;98717.22;;;0.69;100.00
24620;BME280;12763;55.802;37.404;2023-02-28T14:51:44;98714.81;;;0.27;100.00
24620;BME280;12763;55.802;37.404;2023-02-28T14:54:13;98710.56;;;0.79;100.00
24620;BME280;12763;55.802;37.404;2023-02-28T14:56:40;98709.13;;;0.61;100.00
24620;BME280;12763;55.802;37.404;2023-02-28T14:59:24;98720.28;;;0.66;100.00
24620;BME280;12763;55.802;37.404;2023-02-28T15:01:50;98721.75;;;0.84;100.00
24620;BME280;12763;55.802;37.404;2023-02-28T15:04:26;98719.47;;;0.57;100.00
24620;BME280;12763;55.802;37.404;2023-02-28T15:07:10;98713.19;;;0.95;100.00
24620;BME280;12763;55.802;37.404;2023-02-28T15:09:36;98719.88;;;0.85;100.00
24620;BME280;12763;55.802;37.404;2023-02-28T15:12:03;98711.53;;;0.86;100.00
24620;BME280;12763;55.802;37.404;2023-02-28T15:14:29;98715.34;;;0.69;100.00
24620;BME280;12763;55.802;37.404;2023-02-28T15:16:59;98696.69;;;0.97;100.00
24620;BME280;12763;55.802;37.404;2023-02-28T15:19:31;98700.72;;;0.78;100.00
24620;BME280;12763;55.802;37.404;2023-02-28T15:22:28;98698.59;;;0.96;100.00
24620;BME280;12763;55.802;37.404;2023-02-28T15:24:57;98693.25;;;0.72;100.00
24620;BME280;12763;55.802;37.404;2023-02-28T15:27:31;98699.41;;;0.97;100.00
24620;BME280;12763;55.802;37.404;2023-02-28T15:30:00;98692.81;;;0.99;100.00
24620;BME280;12763;55.802;37.404;2023-02-28T15:32:36;98691.56;;;1.10;100.00
24620;BME280;12763;55.802;37.404;2023-02-28T15:35:28;98694.44;;;1.08;100.00
24620;BME280;12763;55.802;37.404;2023-02-28T15:38:25;98679.06;;;1.24;100.00
24620;BME280;12763;55.802;37.404;2023-02-28T15:40:54;98699.41;;;1.28;100.00
24620;BME280;12763;55.802;37.404;2023-02-28T15:43:32;98698.59;;;1.19;100.00
24620;BME280;12763;55.802;37.404;2023-02-28T15:46:05;98688.53;;;0.74;100.00